createdAt,value
2019-03-31T00:02:26.115Z,26.10
2019-03-31T00:04:57.713Z,24.67
2019-03-31T00:07:29.173Z,23.13
2019-03-31T00:10:00.685Z,23.23
2019-03-31T00:12:32.151Z,24.43
2019-03-31T00:15:03.724Z,26.37
2019-03-31T00:17:35.196Z,20.30
2019-03-31T00:20:06.787Z,23.33
2019-03-31T00:22:38.296Z,21.47
2019-03-31T00:25:09.783Z,20.13
2019-03-31T00:27:49.045Z,26.13
2019-03-31T00:30:20.534Z,20.03
2019-03-31T00:32:52.252Z,20.67
2019-03-31T00:35:24.191Z,19.73
2019-03-31T00:37:55.669Z,23.93
2019-03-31T00:40:27.426Z,22.07
2019-03-31T00:42:58.986Z,19.57
2019-03-31T00:45:30.526Z,22.27
2019-03-31T00:48:02.019Z,23.43
2019-03-31T00:50:33.498Z,22.93
2019-03-31T00:53:04.952Z,20.97
2019-03-31T00:55:36.616Z,22.83
2019-03-31T00:58:08.099Z,20.93
2019-03-31T01:00:59.486Z,20.93
2019-03-31T01:03:32.568Z,24.13
2019-03-31T01:06:04.868Z,21.93
2019-03-31T01:08:37.328Z,22.80
2019-03-31T01:11:17.347Z,25.83
2019-03-31T01:13:49.118Z,23.87
2019-03-31T01:16:20.934Z,22.43
2019-03-31T01:18:52.408Z,24.90
2019-03-31T01:21:23.933Z,25.90
2019-03-31T01:23:55.420Z,23.33
2019-03-31T01:26:27.358Z,25.40
2019-03-31T01:28:59.051Z,21.60
2019-03-31T01:31:31.358Z,23.03
2019-03-31T01:34:02.868Z,24.70
2019-03-31T01:36:35.588Z,23.50
2019-03-31T01:39:09.173Z,23.10
2019-03-31T01:41:40.990Z,23.53
2019-03-31T01:44:12.683Z,22.63
2019-03-31T01:46:44.392Z,27.57
2019-03-31T01:49:15.988Z,25.53
2019-03-31T01:51:48.227Z,23.27
2019-03-31T01:54:19.685Z,23.13
2019-03-31T01:56:51.368Z,24.50
2019-03-31T01:59:22.859Z,21.70
2019-03-31T02:02:04.180Z,23.33
2019-03-31T02:04:28.057Z,21.50
2019-03-31T02:06:59.648Z,23.13
2019-03-31T02:09:31.092Z,24.90
2019-03-31T02:12:02.774Z,21.87
2019-03-31T02:14:34.225Z,21.20
2019-03-31T02:17:05.753Z,21.03
2019-03-31T02:19:37.508Z,22.73
2019-03-31T02:22:08.990Z,26.30
2019-03-31T02:24:41.898Z,22.93
2019-03-31T02:27:13.394Z,22.00
2019-03-31T02:29:45.217Z,22.03
2019-03-31T02:32:23.869Z,22.40
2019-03-31T02:34:49.911Z,22.27
2019-03-31T02:37:21.554Z,22.37
2019-03-31T02:39:53.078Z,25.10
2019-03-31T02:42:24.619Z,22.00
2019-03-31T02:44:57.072Z,24.97
2019-03-31T02:47:28.539Z,22.47
2019-03-31T02:50:00.044Z,22.90
2019-03-31T02:52:31.502Z,20.70
2019-03-31T02:55:03.018Z,23.17
2019-03-31T02:57:36.074Z,24.03
2019-03-31T03:00:08.110Z,24.87
2019-03-31T03:02:42.827Z,26.23
2019-03-31T03:05:19.736Z,26.33
2019-03-31T03:07:49.968Z,22.00
2019-03-31T03:10:24.452Z,24.77
2019-03-31T03:12:56.462Z,23.50
2019-03-31T03:15:30.791Z,22.20
2019-03-31T03:18:01.415Z,25.60
2019-03-31T03:20:32.106Z,21.17
2019-03-31T03:23:02.745Z,24.30
2019-03-31T03:25:33.378Z,24.43
2019-03-31T03:28:03.974Z,22.03
2019-03-31T03:30:34.894Z,29.30
2019-03-31T03:33:16.431Z,26.33
2019-03-31T03:35:37.884Z,27.40
2019-03-31T03:38:08.512Z,26.83
2019-03-31T03:40:39.297Z,28.33
2019-03-31T03:43:09.898Z,28.83
2019-03-31T03:45:41.976Z,25.40
2019-03-31T03:48:12.590Z,25.97
2019-03-31T03:50:43.590Z,29.00
2019-03-31T03:53:14.331Z,29.10
2019-03-31T03:55:50.168Z,29.57
2019-03-31T03:58:20.973Z,26.70
2019-03-31T04:00:51.572Z,32.10
2019-03-31T04:03:30.653Z,28.90
2019-03-31T04:05:55.505Z,29.53
2019-03-31T04:08:26.253Z,33.17
2019-03-31T04:11:21.529Z,30.47
2019-03-31T04:13:52.600Z,30.90
2019-03-31T04:16:23.207Z,31.70
2019-03-31T04:18:55.082Z,34.13
2019-03-31T04:21:26.221Z,29.90
2019-03-31T04:23:57.315Z,31.53
2019-03-31T04:26:28.009Z,32.57
2019-03-31T04:28:58.746Z,31.43
2019-03-31T04:31:29.331Z,31.63
2019-03-31T04:33:59.980Z,30.07
2019-03-31T04:36:30.620Z,31.67
2019-03-31T04:39:01.247Z,34.83
2019-03-31T04:41:31.865Z,30.90
2019-03-31T04:44:02.488Z,29.97
2019-03-31T04:46:33.217Z,30.13
2019-03-31T04:49:04.198Z,31.93
2019-03-31T04:51:34.805Z,31.23
2019-03-31T04:54:05.572Z,36.90
2019-03-31T04:56:36.206Z,33.67
2019-03-31T04:59:06.919Z,30.17
2019-03-31T05:01:37.899Z,34.47
2019-03-31T05:04:08.641Z,32.80
2019-03-31T05:06:40.049Z,32.80
2019-03-31T05:09:10.676Z,33.63
2019-03-31T05:11:41.907Z,33.93
2019-03-31T05:14:13.520Z,31.23
2019-03-31T05:16:44.316Z,31.17
2019-03-31T05:19:14.941Z,34.77
2019-03-31T05:21:45.896Z,33.00
2019-03-31T05:24:16.506Z,34.03
2019-03-31T05:26:47.830Z,33.57
2019-03-31T05:29:18.675Z,37.97
2019-03-31T05:31:49.939Z,34.53
2019-03-31T05:34:20.576Z,36.83
2019-03-31T05:36:51.256Z,36.50
2019-03-31T05:39:21.848Z,35.93
2019-03-31T05:41:53.772Z,36.30
2019-03-31T05:44:24.405Z,42.20
2019-03-31T05:46:55.091Z,37.07
2019-03-31T05:49:25.789Z,39.07
2019-03-31T05:51:56.566Z,37.80
2019-03-31T05:54:27.219Z,36.73
2019-03-31T05:56:57.852Z,38.87
2019-03-31T05:59:28.455Z,41.80
2019-03-31T06:01:59.125Z,37.33
2019-03-31T06:04:33.462Z,36.40
2019-03-31T06:07:02.168Z,34.97
2019-03-31T06:09:32.771Z,34.80
2019-03-31T06:12:03.396Z,40.67
2019-03-31T06:14:34.106Z,35.77
2019-03-31T06:17:04.723Z,38.03
2019-03-31T06:19:35.339Z,35.97
2019-03-31T06:22:06.016Z,33.67
2019-03-31T06:24:36.735Z,38.43
2019-03-31T06:27:07.312Z,35.77
2019-03-31T06:29:38.141Z,34.53
2019-03-31T06:32:08.799Z,38.47
2019-03-31T06:34:47.500Z,34.03
2019-03-31T06:37:11.852Z,37.13
2019-03-31T06:39:42.860Z,34.80
2019-03-31T06:42:13.516Z,41.40
2019-03-31T06:44:44.156Z,40.30
2019-03-31T06:47:14.832Z,42.77
2019-03-31T06:49:46.797Z,42.70
2019-03-31T06:52:17.477Z,51.43
2019-03-31T06:54:48.289Z,49.63
2019-03-31T06:57:18.948Z,49.07
2019-03-31T06:59:50.107Z,50.37
2019-03-31T07:02:20.741Z,49.57
2019-03-31T07:05:00.844Z,51.53
2019-03-31T07:07:24.150Z,49.30
2019-03-31T07:09:54.774Z,51.50
2019-03-31T07:12:25.415Z,53.60
2019-03-31T07:14:56.136Z,46.77
2019-03-31T07:17:26.828Z,45.23
2019-03-31T07:19:57.840Z,45.20
2019-03-31T07:22:28.475Z,37.93
2019-03-31T07:24:59.101Z,39.70
2019-03-31T07:27:29.733Z,43.70
2019-03-31T07:30:02.563Z,37.17
2019-03-31T07:32:33.220Z,39.50
2019-03-31T07:35:17.610Z,40.87
2019-03-31T07:37:46.567Z,36.03
2019-03-31T07:40:09.587Z,35.13
2019-03-31T07:42:41.034Z,36.40
2019-03-31T07:45:14.508Z,34.53
2019-03-31T07:47:45.338Z,35.30
2019-03-31T07:50:17.223Z,36.17
2019-03-31T07:52:48.542Z,35.00
2019-03-31T07:55:20.137Z,29.47
2019-03-31T07:57:54.463Z,25.63
2019-03-31T08:00:25.732Z,29.53
2019-03-31T08:03:00.047Z,29.43
2019-03-31T08:05:33.309Z,27.90
2019-03-31T08:08:01.369Z,28.33
2019-03-31T08:10:32.010Z,27.43
2019-03-31T08:13:02.704Z,33.23
2019-03-31T08:15:33.378Z,29.10
2019-03-31T08:18:04.154Z,25.53
2019-03-31T08:20:34.813Z,25.10
2019-03-31T08:23:05.506Z,21.50
2019-03-31T08:25:36.156Z,19.97
2019-03-31T08:28:06.806Z,16.90
2019-03-31T08:30:37.561Z,20.10
2019-03-31T08:33:08.194Z,20.60
2019-03-31T08:35:47.336Z,17.90
2019-03-31T08:38:11.166Z,21.33
2019-03-31T08:40:41.769Z,21.03
2019-03-31T08:43:12.389Z,21.20
2019-03-31T08:45:43.191Z,20.87
2019-03-31T08:48:13.859Z,23.33
2019-03-31T08:50:44.581Z,19.57
2019-03-31T08:53:15.209Z,17.30
2019-03-31T08:55:45.839Z,16.60
2019-03-31T08:58:16.584Z,16.73
2019-03-31T09:00:51.052Z,17.97
2019-03-31T09:03:21.698Z,11.17
2019-03-31T09:06:01.750Z,13.07
2019-03-31T09:08:25.651Z,15.80
2019-03-31T09:10:56.978Z,15.27
2019-03-31T09:13:27.575Z,13.77
2019-03-31T09:15:58.201Z,14.57
2019-03-31T09:18:29.159Z,15.83
2019-03-31T09:20:59.812Z,15.20
2019-03-31T09:23:31.485Z,14.67
2019-03-31T09:26:02.219Z,11.43
2019-03-31T09:28:32.859Z,11.57
2019-03-31T09:31:03.479Z,12.57
2019-03-31T09:33:34.167Z,13.67
2019-03-31T09:36:15.347Z,12.97
2019-03-31T09:38:37.211Z,14.40
2019-03-31T09:41:07.835Z,13.00
2019-03-31T09:43:38.587Z,12.67
2019-03-31T09:46:09.241Z,13.07
2019-03-31T09:48:40.835Z,12.57
2019-03-31T09:51:11.430Z,16.37
2019-03-31T09:53:42.069Z,11.37
2019-03-31T09:56:15.237Z,9.90
2019-03-31T09:58:45.035Z,12.73
2019-03-31T10:01:15.673Z,11.93
2019-03-31T10:03:46.639Z,13.33
2019-03-31T10:06:29.705Z,15.23
2019-03-31T10:08:51.175Z,7.80
2019-03-31T10:11:21.822Z,13.50
2019-03-31T10:13:52.519Z,10.53
2019-03-31T10:16:23.220Z,9.27
2019-03-31T10:18:54.898Z,11.10
2019-03-31T10:21:26.238Z,8.57
2019-03-31T10:23:57.585Z,10.80
2019-03-31T10:26:32.214Z,10.03
2019-03-31T10:29:01.353Z,10.67
2019-03-31T10:31:31.973Z,9.83
2019-03-31T10:34:03.160Z,9.50
2019-03-31T10:36:44.440Z,10.27
2019-03-31T10:39:08.381Z,8.87
2019-03-31T10:41:39.190Z,7.57
2019-03-31T10:44:09.847Z,8.87
2019-03-31T10:46:42.275Z,9.40
2019-03-31T10:49:12.948Z,7.87
2019-03-31T10:51:43.704Z,9.70
2019-03-31T10:54:14.316Z,8.10
2019-03-31T10:56:45.556Z,8.77
2019-03-31T10:59:16.467Z,6.63
2019-03-31T11:01:47.790Z,9.83
2019-03-31T11:04:18.578Z,7.07
2019-03-31T11:06:58.866Z,7.30
2019-03-31T11:09:24.097Z,8.50
2019-03-31T11:11:55.782Z,10.77
2019-03-31T11:14:26.456Z,7.07
2019-03-31T11:16:57.876Z,8.83
2019-03-31T11:19:28.599Z,7.93
2019-03-31T11:22:16.701Z,7.13
2019-03-31T11:24:47.295Z,9.97
2019-03-31T11:27:18.083Z,9.87
2019-03-31T11:29:49.508Z,6.67
2019-03-31T11:32:20.825Z,6.60
2019-03-31T11:34:53.764Z,5.73
2019-03-31T11:37:24.365Z,6.83
2019-03-31T11:39:54.998Z,6.33
2019-03-31T11:42:25.726Z,7.97
2019-03-31T11:44:56.309Z,6.77
2019-03-31T11:47:27.064Z,8.40
2019-03-31T11:49:59.277Z,7.40
2019-03-31T11:52:29.883Z,6.20
2019-03-31T11:55:00.810Z,5.07
2019-03-31T11:57:31.522Z,5.43
2019-03-31T12:00:02.643Z,5.50
2019-03-31T12:02:33.304Z,7.23
2019-03-31T12:05:06.327Z,6.73
2019-03-31T12:07:46.477Z,6.80
2019-03-31T12:10:10.743Z,8.53
2019-03-31T12:12:41.894Z,6.97
2019-03-31T12:15:12.649Z,7.10
2019-03-31T12:17:44.746Z,6.87
2019-03-31T12:20:15.505Z,7.80
2019-03-31T12:22:46.170Z,7.10
2019-03-31T12:25:19.652Z,6.47
2019-03-31T12:27:49.234Z,6.30
2019-03-31T12:30:28.899Z,7.97
2019-03-31T12:32:59.724Z,7.43
2019-03-31T12:35:39.618Z,9.37
2019-03-31T12:38:13.943Z,6.13
2019-03-31T12:40:54.851Z,7.07
2019-03-31T12:43:38.917Z,8.67
2019-03-31T12:46:18.918Z,7.27
2019-03-31T12:48:57.481Z,4.57
2019-03-31T12:51:35.630Z,6.10
2019-03-31T12:54:12.921Z,7.33
2019-03-31T12:56:51.588Z,6.07
2019-03-31T12:59:30.167Z,6.40
2019-03-31T13:02:12.033Z,6.10
2019-03-31T13:04:43.700Z,6.40
2019-03-31T13:07:15.189Z,6.13
2019-03-31T13:09:46.084Z,7.50
2019-03-31T13:12:17.180Z,6.40
2019-03-31T13:14:47.957Z,8.73
2019-03-31T13:17:18.685Z,7.10
2019-03-31T13:19:50.117Z,7.50
2019-03-31T13:22:20.924Z,5.90
2019-03-31T13:24:51.778Z,7.13
2019-03-31T13:27:22.855Z,8.43
2019-03-31T13:29:53.998Z,6.53
2019-03-31T13:32:24.857Z,6.50
2019-03-31T13:34:55.768Z,5.57
2019-03-31T13:37:27.041Z,7.47
2019-03-31T13:39:57.920Z,7.07
2019-03-31T13:42:28.943Z,6.43
2019-03-31T13:44:59.838Z,8.10
2019-03-31T13:47:30.750Z,6.27
2019-03-31T13:50:01.763Z,7.77
2019-03-31T13:52:32.663Z,6.10
2019-03-31T13:55:03.651Z,7.87
2019-03-31T13:57:35.165Z,7.97
2019-03-31T14:00:08.797Z,6.13
2019-03-31T14:02:41.461Z,6.40
2019-03-31T14:05:12.458Z,9.63
2019-03-31T14:07:43.682Z,7.40
2019-03-31T14:10:14.655Z,5.07
2019-03-31T14:12:46.137Z,5.60
2019-03-31T14:15:19.311Z,6.43
2019-03-31T14:17:50.444Z,4.60
2019-03-31T14:20:21.501Z,5.97
2019-03-31T14:22:52.615Z,5.87
2019-03-31T14:25:23.511Z,4.00
2019-03-31T14:27:54.315Z,4.43
2019-03-31T14:30:35.891Z,5.23
2019-03-31T14:33:16.127Z,4.53
2019-03-31T14:35:59.738Z,9.77
2019-03-31T14:38:43.288Z,3.40
2019-03-31T14:41:25.501Z,3.00
2019-03-31T14:44:04.782Z,6.60
2019-03-31T14:46:47.234Z,4.40
2019-03-31T14:49:28.730Z,5.63
2019-03-31T14:52:10.031Z,5.23
2019-03-31T14:54:47.992Z,6.00
2019-03-31T14:57:27.332Z,5.97
2019-03-31T15:00:14.648Z,4.77
2019-03-31T15:02:45.658Z,3.23
2019-03-31T15:05:26.230Z,7.43
2019-03-31T15:08:05.153Z,10.37
2019-03-31T15:10:41.943Z,9.17
2019-03-31T15:13:21.918Z,4.33
2019-03-31T15:15:57.835Z,6.43
2019-03-31T15:18:37.093Z,9.30
2019-03-31T15:21:15.377Z,6.00
2019-03-31T15:23:54.742Z,5.50
2019-03-31T15:26:39.857Z,4.23
2019-03-31T15:29:17.357Z,6.93
2019-03-31T15:31:54.824Z,4.87
2019-03-31T15:34:37.574Z,5.90
2019-03-31T15:37:14.076Z,6.83
2019-03-31T15:40:11.934Z,7.00
2019-03-31T15:42:41.808Z,5.83
2019-03-31T15:45:14.048Z,5.93
2019-03-31T15:47:44.966Z,7.70
2019-03-31T15:50:16.180Z,6.47
2019-03-31T15:52:47.086Z,7.67
2019-03-31T15:55:17.986Z,7.37
2019-03-31T15:57:48.977Z,7.53
2019-03-31T16:00:20.503Z,6.70
2019-03-31T16:02:52.352Z,6.50
2019-03-31T16:05:23.796Z,6.53
2019-03-31T16:07:54.135Z,7.70
2019-03-31T16:10:24.697Z,4.70
2019-03-31T16:12:55.206Z,6.43
2019-03-31T16:15:25.729Z,4.20
2019-03-31T16:17:55.971Z,6.57
2019-03-31T16:20:26.452Z,6.23
2019-03-31T16:22:56.848Z,6.13
2019-03-31T16:25:30.064Z,9.13
2019-03-31T16:28:00.408Z,8.50
2019-03-31T16:30:31.430Z,8.80
2019-03-31T16:33:01.893Z,9.90
2019-03-31T16:35:32.247Z,11.33
2019-03-31T16:38:07.367Z,8.67
2019-03-31T16:40:39.108Z,5.37
2019-03-31T16:43:09.599Z,8.87
2019-03-31T16:45:40.488Z,5.37
2019-03-31T16:48:11.147Z,10.57
2019-03-31T16:50:41.618Z,4.53
2019-03-31T16:53:12.075Z,7.40
2019-03-31T16:55:42.410Z,5.57
2019-03-31T16:58:12.965Z,10.97
2019-03-31T17:00:43.871Z,7.23
2019-03-31T17:03:17.978Z,7.73
2019-03-31T17:05:46.662Z,7.20
2019-03-31T17:08:17.463Z,8.93
2019-03-31T17:10:47.957Z,8.73
2019-03-31T17:13:19.767Z,10.20
2019-03-31T17:15:50.157Z,7.90
2019-03-31T17:18:20.619Z,6.03
2019-03-31T17:20:52.647Z,8.10
2019-03-31T17:23:23.112Z,10.80
2019-03-31T17:25:54.207Z,8.90
2019-03-31T17:28:24.795Z,7.87
2019-03-31T17:30:58.475Z,5.77
2019-03-31T17:33:30.398Z,11.00
2019-03-31T17:36:01.231Z,6.80
2019-03-31T17:38:40.320Z,9.07
2019-03-31T17:41:22.530Z,8.87
2019-03-31T17:43:53.498Z,11.63
2019-03-31T17:46:23.979Z,11.47
2019-03-31T17:48:55.451Z,12.97
2019-03-31T17:51:26.133Z,9.20
2019-03-31T17:54:01.772Z,11.77
2019-03-31T17:56:32.173Z,11.23
2019-03-31T17:59:02.653Z,9.20
2019-03-31T18:01:33.039Z,7.63
2019-03-31T18:04:03.337Z,12.17
2019-03-31T18:06:42.476Z,12.10
2019-03-31T18:09:21.629Z,9.53
2019-03-31T18:12:01.897Z,8.63
2019-03-31T18:14:32.331Z,9.17
2019-03-31T18:17:02.649Z,8.63
2019-03-31T18:19:33.416Z,9.10
2019-03-31T18:22:15.906Z,7.47
2019-03-31T18:24:36.007Z,6.33
2019-03-31T18:27:07.065Z,6.53
2019-03-31T18:29:37.468Z,6.67
2019-03-31T18:32:09.256Z,7.53
2019-03-31T18:34:39.963Z,12.63
2019-03-31T18:37:10.393Z,15.80
2019-03-31T18:39:42.117Z,8.47
2019-03-31T18:42:12.526Z,9.90
2019-03-31T18:44:42.849Z,7.27
2019-03-31T18:47:14.161Z,13.27
2019-03-31T18:49:44.637Z,8.50
2019-03-31T18:52:15.271Z,11.30
2019-03-31T18:55:13.731Z,12.17
2019-03-31T18:57:55.667Z,9.27
2019-03-31T19:01:04.248Z,7.20
2019-03-31T19:04:00.429Z,8.93
2019-03-31T19:06:54.328Z,7.13
2019-03-31T19:09:46.771Z,8.03
2019-03-31T19:12:24.859Z,9.67
2019-03-31T19:15:12.969Z,9.43
2019-03-31T19:18:05.016Z,10.47
2019-03-31T19:21:10.466Z,8.00
2019-03-31T19:23:59.320Z,7.10
2019-03-31T19:26:49.576Z,6.77
2019-03-31T19:29:37.892Z,9.83
2019-03-31T19:32:25.879Z,8.60
2019-03-31T19:35:16.607Z,10.73
2019-03-31T19:38:13.903Z,9.77
2019-03-31T19:41:08.356Z,12.53
2019-03-31T19:44:00.755Z,8.90
2019-03-31T19:46:50.238Z,16.50
2019-03-31T19:49:32.433Z,13.73
2019-03-31T19:52:22.261Z,12.53
2019-03-31T19:55:25.787Z,9.80
2019-03-31T19:58:15.953Z,11.57
2019-03-31T20:01:09.990Z,16.50
2019-03-31T20:04:13.633Z,10.60
2019-03-31T20:07:06.458Z,19.53
2019-03-31T20:10:03.072Z,12.97
2019-03-31T20:13:02.535Z,13.13
2019-03-31T20:15:48.804Z,13.30
2019-03-31T20:18:46.800Z,13.20
2019-03-31T20:21:36.042Z,11.80
2019-03-31T20:24:39.159Z,10.93
2019-03-31T20:27:22.865Z,11.83
2019-03-31T20:30:05.765Z,9.73
2019-03-31T20:32:57.102Z,10.80
2019-03-31T20:35:46.662Z,13.10
2019-03-31T20:38:39.324Z,12.43
2019-03-31T20:41:21.182Z,12.87
2019-03-31T20:43:54.713Z,14.50
2019-03-31T20:46:27.201Z,12.43
2019-03-31T20:49:01.173Z,13.23
2019-03-31T20:51:34.915Z,14.37
2019-03-31T20:54:05.338Z,18.30
2019-03-31T20:56:35.483Z,13.03
2019-03-31T20:59:05.626Z,17.03
2019-03-31T21:01:35.704Z,12.33
2019-03-31T21:04:05.781Z,11.97
2019-03-31T21:06:35.959Z,12.27
2019-03-31T21:09:08.408Z,22.27
2019-03-31T21:11:39.394Z,11.23
2019-03-31T21:14:09.525Z,12.63
2019-03-31T21:16:47.130Z,10.60
2019-03-31T21:19:32.224Z,11.13
2019-03-31T21:22:14.398Z,12.67
2019-03-31T21:24:45.884Z,9.97
2019-03-31T21:27:16.614Z,13.37
2019-03-31T21:29:47.318Z,10.43
2019-03-31T21:32:17.971Z,12.93
2019-03-31T21:34:48.686Z,17.77
2019-03-31T21:37:19.321Z,11.77
2019-03-31T21:39:50.087Z,14.47
2019-03-31T21:42:20.772Z,12.90
2019-03-31T21:44:52.255Z,14.30
2019-03-31T21:47:22.930Z,10.70
2019-03-31T21:49:54.672Z,13.03
2019-03-31T21:52:25.372Z,17.43
2019-03-31T21:54:56.057Z,19.80
2019-03-31T21:57:26.087Z,15.83
2019-03-31T21:59:56.181Z,15.20
2019-03-31T22:02:26.314Z,18.43
2019-03-31T22:04:56.335Z,11.77
2019-03-31T22:07:26.414Z,11.73
2019-03-31T22:09:56.490Z,14.53
2019-03-31T22:12:26.531Z,13.37
2019-03-31T22:14:56.578Z,12.33
2019-03-31T22:17:26.654Z,18.50
2019-03-31T22:19:56.707Z,17.97
2019-03-31T22:22:26.784Z,13.53
2019-03-31T22:24:56.849Z,19.23
2019-03-31T22:27:26.942Z,14.23
2019-03-31T22:29:57.013Z,11.93
2019-03-31T22:32:27.099Z,14.30
2019-03-31T22:34:57.253Z,14.53
2019-03-31T22:37:27.309Z,14.27
2019-03-31T22:39:57.386Z,14.07
2019-03-31T22:42:27.463Z,13.97
2019-03-31T22:44:57.575Z,18.23
2019-03-31T22:47:27.638Z,15.93
2019-03-31T22:49:57.673Z,12.23
2019-03-31T22:52:27.861Z,18.50
2019-03-31T22:54:58.020Z,18.27
2019-03-31T22:57:28.149Z,15.13
2019-03-31T22:59:58.193Z,14.53
2019-03-31T23:02:28.245Z,13.57
2019-03-31T23:04:58.298Z,10.00
2019-03-31T23:07:28.346Z,14.73
2019-03-31T23:09:59.125Z,13.47
2019-03-31T23:12:29.770Z,14.30
2019-03-31T23:15:00.478Z,14.23
2019-03-31T23:17:31.104Z,12.90
2019-03-31T23:20:01.829Z,16.13
2019-03-31T23:22:32.473Z,14.73
2019-03-31T23:25:03.143Z,13.83
2019-03-31T23:27:33.903Z,13.90
2019-03-31T23:30:07.172Z,14.50
2019-03-31T23:32:38.008Z,20.47
2019-03-31T23:35:09.553Z,14.47
2019-03-31T23:37:40.577Z,13.37
2019-03-31T23:40:11.255Z,20.50
2019-03-31T23:42:43.573Z,15.77
2019-03-31T23:45:18.427Z,15.93
2019-03-31T23:47:48.470Z,11.53
2019-03-31T23:50:18.542Z,11.53
2019-03-31T23:52:48.642Z,14.83
2019-03-31T23:55:18.906Z,15.50
2019-03-31T23:57:48.952Z,17.33
